sensor_id;sensor_type;location;lat;lon;timestamp;P1;durP1;ratioP1;P2;durP2;ratioP2
31083;SDS011;36333;51.382;0.016;2022-11-20T00:01:23;27.73;;;8.82;;
31083;SDS011;36333;51.382;0.016;2022-11-20T00:03:53;30.10;;;8.02;;
31083;SDS011;36333;51.382;0.016;2022-11-20T00:06:21;25.05;;;7.93;;
31083;SDS011;36333;51.382;0.016;2022-11-20T00:08:50;26.92;;;8.52;;
31083;SDS011;36333;51.382;0.016;2022-11-20T00:11:19;24.70;;;8.50;;
31083;SDS011;36333;51.382;0.016;2022-11-20T00:13:49;28.55;;;8.70;;
31083;SDS011;36333;51.382;0.016;2022-11-20T00:16:20;28.02;;;8.20;;
31083;SDS011;36333;51.382;0.016;2022-11-20T00:18:49;29.25;;;8.30;;
31083;SDS011;36333;51.382;0.016;2022-11-20T00:23:48;24.05;;;7.20;;
31083;SDS011;36333;51.382;0.016;2022-11-20T00:26:17;30.83;;;6.80;;
31083;SDS011;36333;51.382;0.016;2022-11-20T00:28:55;30.13;;;7.38;;
31083;SDS011;36333;51.382;0.016;2022-11-20T00:31:25;23.05;;;6.60;;
31083;SDS011;36333;51.382;0.016;2022-11-20T00:36:21;31.25;;;7.55;;
31083;SDS011;36333;51.382;0.016;2022-11-20T00:38:56;22.05;;;5.93;;
31083;SDS011;36333;51.382;0.016;2022-11-20T00:41:25;24.58;;;6.30;;
31083;SDS011;36333;51.382;0.016;2022-11-20T00:43:54;21.77;;;6.75;;
31083;SDS011;36333;51.382;0.016;2022-11-20T00:46:23;17.05;;;5.72;;
31083;SDS011;36333;51.382;0.016;2022-11-20T00:48:53;19.60;;;6.03;;
31083;SDS011;36333;51.382;0.016;2022-11-20T00:51:21;19.13;;;6.38;;
31083;SDS011;36333;51.382;0.016;2022-11-20T00:53:50;21.92;;;5.32;;
31083;SDS011;36333;51.382;0.016;2022-11-20T00:56:18;22.25;;;5.63;;
31083;SDS011;36333;51.382;0.016;2022-11-20T01:03:45;20.23;;;5.47;;
31083;SDS011;36333;51.382;0.016;2022-11-20T01:08:42;17.40;;;4.97;;
31083;SDS011;36333;51.382;0.016;2022-11-20T01:11:12;17.17;;;5.13;;
31083;SDS011;36333;51.382;0.016;2022-11-20T01:13:41;17.70;;;5.22;;
31083;SDS011;36333;51.382;0.016;2022-11-20T01:18:37;14.05;;;4.43;;
31083;SDS011;36333;51.382;0.016;2022-11-20T01:21:14;10.98;;;4.03;;
31083;SDS011;36333;51.382;0.016;2022-11-20T01:23:49;17.38;;;4.80;;
31083;SDS011;36333;51.382;0.016;2022-11-20T01:26:18;22.00;;;4.90;;
31083;SDS011;36333;51.382;0.016;2022-11-20T01:28:48;16.52;;;4.22;;
31083;SDS011;36333;51.382;0.016;2022-11-20T01:33:48;13.02;;;3.70;;
31083;SDS011;36333;51.382;0.016;2022-11-20T01:36:18;12.63;;;4.00;;
31083;SDS011;36333;51.382;0.016;2022-11-20T01:38:47;12.63;;;4.10;;
31083;SDS011;36333;51.382;0.016;2022-11-20T01:41:17;11.23;;;4.40;;
31083;SDS011;36333;51.382;0.016;2022-11-20T01:44:04;13.10;;;3.92;;
31083;SDS011;36333;51.382;0.016;2022-11-20T01:46:32;15.60;;;4.03;;
31083;SDS011;36333;51.382;0.016;2022-11-20T01:49:04;16.80;;;4.13;;
31083;SDS011;36333;51.382;0.016;2022-11-20T01:51:50;11.60;;;4.18;;
31083;SDS011;36333;51.382;0.016;2022-11-20T01:54:25;16.60;;;4.00;;
31083;SDS011;36333;51.382;0.016;2022-11-20T01:56:57;17.23;;;4.03;;
31083;SDS011;36333;51.382;0.016;2022-11-20T01:59:27;15.57;;;4.18;;
31083;SDS011;36333;51.382;0.016;2022-11-20T02:01:56;15.07;;;3.72;;
31083;SDS011;36333;51.382;0.016;2022-11-20T02:04:24;18.15;;;4.38;;
31083;SDS011;36333;51.382;0.016;2022-11-20T02:06:57;12.00;;;3.72;;
31083;SDS011;36333;51.382;0.016;2022-11-20T02:09:27;19.42;;;4.10;;
31083;SDS011;36333;51.382;0.016;2022-11-20T02:11:55;15.73;;;3.42;;
31083;SDS011;36333;51.382;0.016;2022-11-20T02:14:23;17.35;;;3.20;;
31083;SDS011;36333;51.382;0.016;2022-11-20T02:16:52;14.75;;;3.42;;
31083;SDS011;36333;51.382;0.016;2022-11-20T02:19:27;10.55;;;3.38;;
31083;SDS011;36333;51.382;0.016;2022-11-20T02:22:18;12.70;;;3.28;;
31083;SDS011;36333;51.382;0.016;2022-11-20T02:24:56;12.55;;;2.85;;
31083;SDS011;36333;51.382;0.016;2022-11-20T02:27:25;12.38;;;3.15;;
31083;SDS011;36333;51.382;0.016;2022-11-20T02:30:00;10.00;;;2.80;;
31083;SDS011;36333;51.382;0.016;2022-11-20T02:32:35;15.35;;;3.13;;
31083;SDS011;36333;51.382;0.016;2022-11-20T02:35:07;23.02;;;3.70;;
31083;SDS011;36333;51.382;0.016;2022-11-20T02:37:38;10.02;;;3.22;;
31083;SDS011;36333;51.382;0.016;2022-11-20T02:40:07;14.60;;;3.55;;
31083;SDS011;36333;51.382;0.016;2022-11-20T02:42:35;12.43;;;2.88;;
31083;SDS011;36333;51.382;0.016;2022-11-20T02:45:04;12.77;;;3.22;;
31083;SDS011;36333;51.382;0.016;2022-11-20T02:47:33;10.13;;;3.20;;
31083;SDS011;36333;51.382;0.016;2022-11-20T02:50:00;11.80;;;2.92;;
31083;SDS011;36333;51.382;0.016;2022-11-20T02:52:29;15.48;;;3.65;;
31083;SDS011;36333;51.382;0.016;2022-11-20T02:54:57;14.45;;;3.00;;
31083;SDS011;36333;51.382;0.016;2022-11-20T02:57:24;13.40;;;2.67;;
31083;SDS011;36333;51.382;0.016;2022-11-20T02:59:51;12.25;;;2.78;;
31083;SDS011;36333;51.382;0.016;2022-11-20T03:02:19;12.75;;;2.75;;
31083;SDS011;36333;51.382;0.016;2022-11-20T03:04:47;8.80;;;2.53;;
31083;SDS011;36333;51.382;0.016;2022-11-20T03:07:14;12.50;;;2.78;;
31083;SDS011;36333;51.382;0.016;2022-11-20T03:09:42;14.85;;;2.90;;
31083;SDS011;36333;51.382;0.016;2022-11-20T03:12:09;12.73;;;2.78;;
31083;SDS011;36333;51.382;0.016;2022-11-20T03:14:37;17.02;;;3.08;;
31083;SDS011;36333;51.382;0.016;2022-11-20T03:17:04;14.88;;;3.10;;
31083;SDS011;36333;51.382;0.016;2022-11-20T03:19:32;16.65;;;2.25;;
31083;SDS011;36333;51.382;0.016;2022-11-20T03:22:01;12.52;;;1.90;;
31083;SDS011;36333;51.382;0.016;2022-11-20T03:24:28;11.45;;;2.10;;
31083;SDS011;36333;51.382;0.016;2022-11-20T03:26:56;9.02;;;2.15;;
31083;SDS011;36333;51.382;0.016;2022-11-20T03:29:23;11.90;;;1.85;;
31083;SDS011;36333;51.382;0.016;2022-11-20T03:31:51;14.60;;;2.10;;
31083;SDS011;36333;51.382;0.016;2022-11-20T03:34:18;18.70;;;1.98;;
31083;SDS011;36333;51.382;0.016;2022-11-20T03:36:45;11.75;;;2.30;;
31083;SDS011;36333;51.382;0.016;2022-11-20T03:39:13;11.80;;;2.15;;
31083;SDS011;36333;51.382;0.016;2022-11-20T03:41:41;14.20;;;2.08;;
31083;SDS011;36333;51.382;0.016;2022-11-20T03:44:09;11.23;;;2.10;;
31083;SDS011;36333;51.382;0.016;2022-11-20T03:46:38;16.67;;;3.25;;
31083;SDS011;36333;51.382;0.016;2022-11-20T03:49:06;13.68;;;2.70;;
31083;SDS011;36333;51.382;0.016;2022-11-20T03:51:34;19.20;;;2.45;;
31083;SDS011;36333;51.382;0.016;2022-11-20T03:54:06;11.98;;;2.53;;
31083;SDS011;36333;51.382;0.016;2022-11-20T03:56:35;13.60;;;2.67;;
31083;SDS011;36333;51.382;0.016;2022-11-20T03:59:04;16.98;;;2.83;;
31083;SDS011;36333;51.382;0.016;2022-11-20T04:01:33;18.27;;;2.67;;
31083;SDS011;36333;51.382;0.016;2022-11-20T04:04:03;20.77;;;3.00;;
31083;SDS011;36333;51.382;0.016;2022-11-20T04:06:35;15.85;;;2.75;;
31083;SDS011;36333;51.382;0.016;2022-11-20T04:09:04;12.77;;;3.00;;
31083;SDS011;36333;51.382;0.016;2022-11-20T04:11:34;17.52;;;3.55;;
31083;SDS011;36333;51.382;0.016;2022-11-20T04:14:04;26.38;;;4.00;;
31083;SDS011;36333;51.382;0.016;2022-11-20T04:16:36;14.35;;;2.80;;
31083;SDS011;36333;51.382;0.016;2022-11-20T04:19:04;17.05;;;3.22;;
31083;SDS011;36333;51.382;0.016;2022-11-20T04:21:36;12.98;;;3.47;;
31083;SDS011;36333;51.382;0.016;2022-11-20T04:24:03;18.52;;;3.28;;
31083;SDS011;36333;51.382;0.016;2022-11-20T04:26:31;20.50;;;3.85;;
31083;SDS011;36333;51.382;0.016;2022-11-20T04:28:59;16.02;;;3.88;;
31083;SDS011;36333;51.382;0.016;2022-11-20T04:31:29;22.48;;;3.95;;
31083;SDS011;36333;51.382;0.016;2022-11-20T04:33:59;19.88;;;3.63;;
31083;SDS011;36333;51.382;0.016;2022-11-20T04:36:31;22.98;;;3.70;;
31083;SDS011;36333;51.382;0.016;2022-11-20T04:39:01;21.67;;;3.78;;
31083;SDS011;36333;51.382;0.016;2022-11-20T04:41:32;14.32;;;3.65;;
31083;SDS011;36333;51.382;0.016;2022-11-20T04:44:02;17.25;;;3.90;;
31083;SDS011;36333;51.382;0.016;2022-11-20T04:46:33;12.45;;;3.97;;
31083;SDS011;36333;51.382;0.016;2022-11-20T04:49:05;22.42;;;5.93;;
31083;SDS011;36333;51.382;0.016;2022-11-20T04:51:34;19.52;;;4.13;;
31083;SDS011;36333;51.382;0.016;2022-11-20T04:54:02;15.38;;;4.38;;
31083;SDS011;36333;51.382;0.016;2022-11-20T04:56:29;20.35;;;4.20;;
31083;SDS011;36333;51.382;0.016;2022-11-20T04:58:59;14.35;;;4.10;;
31083;SDS011;36333;51.382;0.016;2022-11-20T05:01:28;22.70;;;4.35;;
31083;SDS011;36333;51.382;0.016;2022-11-20T05:03:56;17.65;;;4.28;;
31083;SDS011;36333;51.382;0.016;2022-11-20T05:06:23;16.75;;;4.15;;
31083;SDS011;36333;51.382;0.016;2022-11-20T05:08:51;18.48;;;3.92;;
31083;SDS011;36333;51.382;0.016;2022-11-20T05:11:19;14.68;;;4.03;;
31083;SDS011;36333;51.382;0.016;2022-11-20T05:13:48;19.60;;;4.07;;
31083;SDS011;36333;51.382;0.016;2022-11-20T05:16:18;13.63;;;3.75;;
31083;SDS011;36333;51.382;0.016;2022-11-20T05:18:47;19.10;;;4.22;;
31083;SDS011;36333;51.382;0.016;2022-11-20T05:21:16;21.70;;;4.18;;
31083;SDS011;36333;51.382;0.016;2022-11-20T05:23:44;13.65;;;3.80;;
31083;SDS011;36333;51.382;0.016;2022-11-20T05:26:16;19.38;;;4.07;;
31083;SDS011;36333;51.382;0.016;2022-11-20T05:28:45;19.55;;;4.78;;
31083;SDS011;36333;51.382;0.016;2022-11-20T05:31:15;21.30;;;4.50;;
31083;SDS011;36333;51.382;0.016;2022-11-20T05:33:52;19.00;;;4.97;;
31083;SDS011;36333;51.382;0.016;2022-11-20T05:36:19;18.20;;;4.55;;
31083;SDS011;36333;51.382;0.016;2022-11-20T05:38:47;17.00;;;5.05;;
31083;SDS011;36333;51.382;0.016;2022-11-20T05:41:18;22.02;;;5.00;;
31083;SDS011;36333;51.382;0.016;2022-11-20T05:43:47;21.52;;;5.25;;
31083;SDS011;36333;51.382;0.016;2022-11-20T05:46:17;29.08;;;5.68;;
31083;SDS011;36333;51.382;0.016;2022-11-20T05:48:54;19.85;;;5.80;;
31083;SDS011;36333;51.382;0.016;2022-11-20T05:51:23;21.33;;;6.63;;
31083;SDS011;36333;51.382;0.016;2022-11-20T05:53:51;23.67;;;6.43;;
31083;SDS011;36333;51.382;0.016;2022-11-20T05:56:19;17.05;;;6.80;;
31083;SDS011;36333;51.382;0.016;2022-11-20T05:58:48;24.15;;;7.03;;
31083;SDS011;36333;51.382;0.016;2022-11-20T06:03:47;21.50;;;7.95;;
31083;SDS011;36333;51.382;0.016;2022-11-20T06:06:17;27.45;;;7.50;;
31083;SDS011;36333;51.382;0.016;2022-11-20T06:08:46;26.55;;;7.65;;
31083;SDS011;36333;51.382;0.016;2022-11-20T06:11:15;26.27;;;8.43;;
31083;SDS011;36333;51.382;0.016;2022-11-20T06:13:43;22.83;;;8.45;;
31083;SDS011;36333;51.382;0.016;2022-11-20T06:18:39;18.88;;;7.72;;
31083;SDS011;36333;51.382;0.016;2022-11-20T06:21:11;20.83;;;8.50;;
31083;SDS011;36333;51.382;0.016;2022-11-20T06:23:44;23.60;;;8.95;;
31083;SDS011;36333;51.382;0.016;2022-11-20T06:26:13;19.90;;;7.95;;
31083;SDS011;36333;51.382;0.016;2022-11-20T06:28:42;19.58;;;8.02;;
31083;SDS011;36333;51.382;0.016;2022-11-20T06:31:10;22.00;;;8.10;;
31083;SDS011;36333;51.382;0.016;2022-11-20T06:33:40;19.10;;;7.68;;
31083;SDS011;36333;51.382;0.016;2022-11-20T06:36:09;17.95;;;7.63;;
31083;SDS011;36333;51.382;0.016;2022-11-20T06:38:38;17.65;;;7.88;;
31083;SDS011;36333;51.382;0.016;2022-11-20T06:43:36;18.48;;;7.38;;
31083;SDS011;36333;51.382;0.016;2022-11-20T06:46:04;16.73;;;8.05;;
31083;SDS011;36333;51.382;0.016;2022-11-20T06:48:31;21.38;;;8.70;;
31083;SDS011;36333;51.382;0.016;2022-11-20T06:50:59;18.35;;;8.40;;
31083;SDS011;36333;51.382;0.016;2022-11-20T06:53:29;23.05;;;8.65;;
31083;SDS011;36333;51.382;0.016;2022-11-20T06:55:56;21.67;;;8.77;;
31083;SDS011;36333;51.382;0.016;2022-11-20T06:58:28;22.63;;;7.90;;
31083;SDS011;36333;51.382;0.016;2022-11-20T07:01:01;23.10;;;8.18;;
31083;SDS011;36333;51.382;0.016;2022-11-20T07:03:39;25.92;;;8.48;;
31083;SDS011;36333;51.382;0.016;2022-11-20T07:06:07;18.45;;;8.20;;
31083;SDS011;36333;51.382;0.016;2022-11-20T07:08:35;19.00;;;7.82;;
31083;SDS011;36333;51.382;0.016;2022-11-20T07:11:04;20.27;;;7.45;;
31083;SDS011;36333;51.382;0.016;2022-11-20T07:13:33;23.05;;;7.03;;
31083;SDS011;36333;51.382;0.016;2022-11-20T07:16:05;14.65;;;6.10;;
31083;SDS011;36333;51.382;0.016;2022-11-20T07:18:34;14.77;;;6.20;;
31083;SDS011;36333;51.382;0.016;2022-11-20T07:23:30;10.48;;;4.78;;
31083;SDS011;36333;51.382;0.016;2022-11-20T07:26:02;11.85;;;5.18;;
31083;SDS011;36333;51.382;0.016;2022-11-20T07:28:31;13.68;;;5.50;;
31083;SDS011;36333;51.382;0.016;2022-11-20T07:30:59;9.90;;;4.90;;
31083;SDS011;36333;51.382;0.016;2022-11-20T07:33:26;14.15;;;5.38;;
31083;SDS011;36333;51.382;0.016;2022-11-20T07:35:54;12.77;;;5.03;;
31083;SDS011;36333;51.382;0.016;2022-11-20T07:38:21;11.63;;;5.13;;
31083;SDS011;36333;51.382;0.016;2022-11-20T07:40:52;10.05;;;4.75;;
31083;SDS011;36333;51.382;0.016;2022-11-20T07:43:21;13.55;;;5.10;;
31083;SDS011;36333;51.382;0.016;2022-11-20T07:45:48;12.70;;;5.20;;
31083;SDS011;36333;51.382;0.016;2022-11-20T07:48:16;11.88;;;4.93;;
31083;SDS011;36333;51.382;0.016;2022-11-20T07:50:43;14.65;;;3.58;;
31083;SDS011;36333;51.382;0.016;2022-11-20T07:53:11;14.38;;;2.28;;
31083;SDS011;36333;51.382;0.016;2022-11-20T07:55:39;8.68;;;2.03;;
31083;SDS011;36333;51.382;0.016;2022-11-20T07:58:08;7.07;;;2.83;;
31083;SDS011;36333;51.382;0.016;2022-11-20T08:00:35;5.40;;;2.65;;
31083;SDS011;36333;51.382;0.016;2022-11-20T08:03:04;10.00;;;3.38;;
31083;SDS011;36333;51.382;0.016;2022-11-20T08:05:32;8.48;;;3.83;;
31083;SDS011;36333;51.382;0.016;2022-11-20T08:08:00;10.70;;;3.35;;
31083;SDS011;36333;51.382;0.016;2022-11-20T08:10:27;7.45;;;3.35;;
31083;SDS011;36333;51.382;0.016;2022-11-20T08:12:55;25.30;;;11.85;;
31083;SDS011;36333;51.382;0.016;2022-11-20T08:15:41;19.20;;;10.95;;
31083;SDS011;36333;51.382;0.016;2022-11-20T08:18:14;13.10;;;7.00;;
31083;SDS011;36333;51.382;0.016;2022-11-20T08:20:57;6.85;;;4.28;;
31083;SDS011;36333;51.382;0.016;2022-11-20T08:23:28;10.38;;;4.10;;
31083;SDS011;36333;51.382;0.016;2022-11-20T08:25:55;8.82;;;3.92;;
31083;SDS011;36333;51.382;0.016;2022-11-20T08:28:23;7.13;;;3.65;;
31083;SDS011;36333;51.382;0.016;2022-11-20T08:30:50;11.93;;;3.95;;
31083;SDS011;36333;51.382;0.016;2022-11-20T08:33:18;7.45;;;3.40;;
31083;SDS011;36333;51.382;0.016;2022-11-20T08:35:45;9.25;;;3.25;;
31083;SDS011;36333;51.382;0.016;2022-11-20T08:38:13;5.05;;;2.92;;
31083;SDS011;36333;51.382;0.016;2022-11-20T08:40:40;8.20;;;3.38;;
31083;SDS011;36333;51.382;0.016;2022-11-20T08:43:28;6.25;;;2.75;;
31083;SDS011;36333;51.382;0.016;2022-11-20T08:45:58;7.38;;;3.50;;
31083;SDS011;36333;51.382;0.016;2022-11-20T08:48:26;7.55;;;3.13;;
31083;SDS011;36333;51.382;0.016;2022-11-20T08:50:53;8.63;;;3.47;;
31083;SDS011;36333;51.382;0.016;2022-11-20T08:53:25;6.90;;;3.42;;
31083;SDS011;36333;51.382;0.016;2022-11-20T08:55:53;6.75;;;3.70;;
31083;SDS011;36333;51.382;0.016;2022-11-20T08:58:21;8.55;;;3.95;;
31083;SDS011;36333;51.382;0.016;2022-11-20T09:00:48;10.00;;;4.37;;
31083;SDS011;36333;51.382;0.016;2022-11-20T09:03:16;10.38;;;5.10;;
31083;SDS011;36333;51.382;0.016;2022-11-20T09:05:43;8.18;;;5.20;;
31083;SDS011;36333;51.382;0.016;2022-11-20T09:08:11;15.00;;;5.90;;
31083;SDS011;36333;51.382;0.016;2022-11-20T09:10:38;13.73;;;5.78;;
31083;SDS011;36333;51.382;0.016;2022-11-20T09:13:08;14.13;;;6.68;;
31083;SDS011;36333;51.382;0.016;2022-11-20T09:15:36;16.37;;;6.50;;
31083;SDS011;36333;51.382;0.016;2022-11-20T09:18:03;15.18;;;6.70;;
31083;SDS011;36333;51.382;0.016;2022-11-20T09:20:31;16.88;;;7.00;;
31083;SDS011;36333;51.382;0.016;2022-11-20T09:22:59;11.82;;;6.57;;
31083;SDS011;36333;51.382;0.016;2022-11-20T09:25:26;15.93;;;6.75;;
31083;SDS011;36333;51.382;0.016;2022-11-20T09:27:54;17.20;;;7.78;;
31083;SDS011;36333;51.382;0.016;2022-11-20T09:30:23;15.43;;;6.07;;
31083;SDS011;36333;51.382;0.016;2022-11-20T09:32:53;21.60;;;7.03;;
31083;SDS011;36333;51.382;0.016;2022-11-20T09:35:20;21.60;;;6.30;;
31083;SDS011;36333;51.382;0.016;2022-11-20T09:37:48;17.52;;;6.50;;
31083;SDS011;36333;51.382;0.016;2022-11-20T09:40:20;24.40;;;7.30;;
31083;SDS011;36333;51.382;0.016;2022-11-20T09:42:55;21.38;;;7.35;;
31083;SDS011;36333;51.382;0.016;2022-11-20T09:45:29;24.38;;;7.25;;
31083;SDS011;36333;51.382;0.016;2022-11-20T09:48:20;24.20;;;9.13;;
31083;SDS011;36333;51.382;0.016;2022-11-20T09:51:05;29.27;;;8.13;;
31083;SDS011;36333;51.382;0.016;2022-11-20T09:54:18;26.92;;;9.82;;
31083;SDS011;36333;51.382;0.016;2022-11-20T09:56:49;25.63;;;8.65;;
31083;SDS011;36333;51.382;0.016;2022-11-20T10:01:53;23.63;;;8.65;;
31083;SDS011;36333;51.382;0.016;2022-11-20T10:04:22;25.60;;;9.60;;
31083;SDS011;36333;51.382;0.016;2022-11-20T10:09:51;40.15;;;9.63;;
31083;SDS011;36333;51.382;0.016;2022-11-20T10:18:01;33.75;;;8.27;;
31083;SDS011;36333;51.382;0.016;2022-11-20T10:20:43;29.27;;;8.38;;
31083;SDS011;36333;51.382;0.016;2022-11-20T10:31:00;36.83;;;8.40;;
31083;SDS011;36333;51.382;0.016;2022-11-20T10:33:39;35.28;;;7.80;;
31083;SDS011;36333;51.382;0.016;2022-11-20T10:36:30;36.03;;;8.07;;
31083;SDS011;36333;51.382;0.016;2022-11-20T10:39:06;35.53;;;8.90;;
31083;SDS011;36333;51.382;0.016;2022-11-20T10:41:41;26.23;;;6.28;;
31083;SDS011;36333;51.382;0.016;2022-11-20T10:44:11;38.17;;;8.05;;
31083;SDS011;36333;51.382;0.016;2022-11-20T10:47:03;33.90;;;7.43;;
31083;SDS011;36333;51.382;0.016;2022-11-20T10:49:32;35.00;;;7.63;;
31083;SDS011;36333;51.382;0.016;2022-11-20T10:57:40;39.38;;;7.60;;
31083;SDS011;36333;51.382;0.016;2022-11-20T11:00:23;36.60;;;7.72;;
31083;SDS011;36333;51.382;0.016;2022-11-20T11:02:54;29.08;;;6.57;;
31083;SDS011;36333;51.382;0.016;2022-11-20T11:08:10;35.47;;;6.80;;
31083;SDS011;36333;51.382;0.016;2022-11-20T11:10:57;30.77;;;7.30;;
31083;SDS011;36333;51.382;0.016;2022-11-20T11:13:29;36.70;;;6.50;;
31083;SDS011;36333;51.382;0.016;2022-11-20T11:15:57;34.97;;;5.80;;
31083;SDS011;36333;51.382;0.016;2022-11-20T11:18:26;32.75;;;5.20;;
31083;SDS011;36333;51.382;0.016;2022-11-20T11:20:57;29.65;;;5.32;;
31083;SDS011;36333;51.382;0.016;2022-11-20T11:26:00;38.70;;;5.72;;
31083;SDS011;36333;51.382;0.016;2022-11-20T11:28:30;32.22;;;4.47;;
31083;SDS011;36333;51.382;0.016;2022-11-20T11:33:30;41.30;;;5.13;;
31083;SDS011;36333;51.382;0.016;2022-11-20T11:36:01;33.78;;;4.57;;
31083;SDS011;36333;51.382;0.016;2022-11-20T11:38:34;30.85;;;4.32;;
31083;SDS011;36333;51.382;0.016;2022-11-20T11:41:13;30.52;;;4.55;;
31083;SDS011;36333;51.382;0.016;2022-11-20T11:43:55;39.58;;;5.53;;
31083;SDS011;36333;51.382;0.016;2022-11-20T11:46:50;52.67;;;5.28;;
31083;SDS011;36333;51.382;0.016;2022-11-20T11:49:21;45.20;;;5.40;;
31083;SDS011;36333;51.382;0.016;2022-11-20T11:54:23;49.13;;;5.07;;
31083;SDS011;36333;51.382;0.016;2022-11-20T11:56:54;45.95;;;5.05;;
31083;SDS011;36333;51.382;0.016;2022-11-20T12:02:35;27.63;;;3.58;;
31083;SDS011;36333;51.382;0.016;2022-11-20T12:05:09;34.67;;;4.68;;
31083;SDS011;36333;51.382;0.016;2022-11-20T12:16:12;38.92;;;4.95;;
31083;SDS011;36333;51.382;0.016;2022-11-20T12:18:42;30.92;;;4.50;;
31083;SDS011;36333;51.382;0.016;2022-11-20T12:26:24;39.75;;;4.88;;
31083;SDS011;36333;51.382;0.016;2022-11-20T12:29:17;34.83;;;4.28;;
31083;SDS011;36333;51.382;0.016;2022-11-20T12:40:12;32.13;;;4.15;;
31083;SDS011;36333;51.382;0.016;2022-11-20T12:42:44;34.05;;;5.05;;
31083;SDS011;36333;51.382;0.016;2022-11-20T12:57:24;28.52;;;4.95;;
31083;SDS011;36333;51.382;0.016;2022-11-20T13:00:15;25.50;;;4.18;;
31083;SDS011;36333;51.382;0.016;2022-11-20T13:05:24;31.45;;;4.20;;
31083;SDS011;36333;51.382;0.016;2022-11-20T13:08:11;26.60;;;3.90;;
31083;SDS011;36333;51.382;0.016;2022-11-20T13:19:41;27.38;;;3.63;;
31083;SDS011;36333;51.382;0.016;2022-11-20T13:22:10;31.88;;;4.25;;
31083;SDS011;36333;51.382;0.016;2022-11-20T13:24:38;29.17;;;4.13;;
31083;SDS011;36333;51.382;0.016;2022-11-20T13:29:41;33.53;;;4.22;;
31083;SDS011;36333;51.382;0.016;2022-11-20T13:34:55;31.48;;;4.43;;
31083;SDS011;36333;51.382;0.016;2022-11-20T13:37:26;25.17;;;4.18;;
31083;SDS011;36333;51.382;0.016;2022-11-20T13:42:54;30.30;;;4.05;;
31083;SDS011;36333;51.382;0.016;2022-11-20T13:45:34;30.52;;;5.05;;
31083;SDS011;36333;51.382;0.016;2022-11-20T13:48:03;38.75;;;4.90;;
31083;SDS011;36333;51.382;0.016;2022-11-20T13:50:46;26.65;;;3.35;;
31083;SDS011;36333;51.382;0.016;2022-11-20T13:53:31;28.55;;;4.32;;
31083;SDS011;36333;51.382;0.016;2022-11-20T13:59:09;26.83;;;3.97;;
31083;SDS011;36333;51.382;0.016;2022-11-20T14:01:47;28.00;;;3.60;;
31083;SDS011;36333;51.382;0.016;2022-11-20T14:04:25;22.60;;;3.38;;
31083;SDS011;36333;51.382;0.016;2022-11-20T14:06:56;29.30;;;4.22;;
31083;SDS011;36333;51.382;0.016;2022-11-20T14:11:58;22.27;;;3.20;;
31083;SDS011;36333;51.382;0.016;2022-11-20T14:14:26;31.42;;;3.58;;
31083;SDS011;36333;51.382;0.016;2022-11-20T14:17:05;27.58;;;4.00;;
31083;SDS011;36333;51.382;0.016;2022-11-20T14:19:45;35.03;;;4.55;;
31083;SDS011;36333;51.382;0.016;2022-11-20T14:22:19;22.60;;;3.65;;
31083;SDS011;36333;51.382;0.016;2022-11-20T14:27:39;22.55;;;3.53;;
31083;SDS011;36333;51.382;0.016;2022-11-20T14:30:22;34.58;;;4.85;;
31083;SDS011;36333;51.382;0.016;2022-11-20T14:32:52;27.13;;;4.40;;
31083;SDS011;36333;51.382;0.016;2022-11-20T14:35:25;29.40;;;4.07;;
31083;SDS011;36333;51.382;0.016;2022-11-20T14:37:55;29.67;;;4.40;;
31083;SDS011;36333;51.382;0.016;2022-11-20T14:40:28;27.95;;;4.20;;
31083;SDS011;36333;51.382;0.016;2022-11-20T14:43:00;24.10;;;4.53;;
31083;SDS011;36333;51.382;0.016;2022-11-20T14:45:28;30.52;;;4.70;;
31083;SDS011;36333;51.382;0.016;2022-11-20T14:47:56;27.65;;;4.88;;
31083;SDS011;36333;51.382;0.016;2022-11-20T14:50:28;29.65;;;4.35;;
31083;SDS011;36333;51.382;0.016;2022-11-20T14:52:57;23.77;;;4.30;;
31083;SDS011;36333;51.382;0.016;2022-11-20T14:55:36;30.35;;;5.53;;
31083;SDS011;36333;51.382;0.016;2022-11-20T14:58:26;23.85;;;4.00;;
31083;SDS011;36333;51.382;0.016;2022-11-20T15:00:55;31.10;;;4.90;;
31083;SDS011;36333;51.382;0.016;2022-11-20T15:03:46;33.47;;;5.82;;
31083;SDS011;36333;51.382;0.016;2022-11-20T15:06:27;35.40;;;5.78;;
31083;SDS011;36333;51.382;0.016;2022-11-20T15:08:55;25.25;;;4.35;;
31083;SDS011;36333;51.382;0.016;2022-11-20T15:11:26;35.50;;;4.97;;
31083;SDS011;36333;51.382;0.016;2022-11-20T15:13:57;26.10;;;4.30;;
31083;SDS011;36333;51.382;0.016;2022-11-20T15:16:29;32.20;;;5.13;;
31083;SDS011;36333;51.382;0.016;2022-11-20T15:18:57;31.80;;;4.88;;
31083;SDS011;36333;51.382;0.016;2022-11-20T15:21:25;36.75;;;5.45;;
31083;SDS011;36333;51.382;0.016;2022-11-20T15:23:53;26.80;;;4.50;;
31083;SDS011;36333;51.382;0.016;2022-11-20T15:28:52;27.33;;;4.28;;
31083;SDS011;36333;51.382;0.016;2022-11-20T15:31:21;27.92;;;4.60;;
31083;SDS011;36333;51.382;0.016;2022-11-20T15:33:50;31.52;;;4.90;;
31083;SDS011;36333;51.382;0.016;2022-11-20T15:36:18;27.55;;;4.82;;
31083;SDS011;36333;51.382;0.016;2022-11-20T15:38:45;23.80;;;4.25;;
31083;SDS011;36333;51.382;0.016;2022-11-20T15:41:13;26.70;;;4.97;;
31083;SDS011;36333;51.382;0.016;2022-11-20T15:43:40;29.40;;;4.88;;
31083;SDS011;36333;51.382;0.016;2022-11-20T15:46:12;31.33;;;4.80;;
31083;SDS011;36333;51.382;0.016;2022-11-20T15:48:56;31.02;;;4.65;;
31083;SDS011;36333;51.382;0.016;2022-11-20T15:51:30;41.05;;;5.47;;
31083;SDS011;36333;51.382;0.016;2022-11-20T15:54:00;37.08;;;5.60;;
31083;SDS011;36333;51.382;0.016;2022-11-20T15:56:36;43.25;;;5.57;;
31083;SDS011;36333;51.382;0.016;2022-11-20T15:59:04;37.25;;;5.45;;
31083;SDS011;36333;51.382;0.016;2022-11-20T16:01:31;31.10;;;5.53;;
31083;SDS011;36333;51.382;0.016;2022-11-20T16:03:59;35.15;;;5.00;;
31083;SDS011;36333;51.382;0.016;2022-11-20T16:06:27;37.33;;;5.22;;
31083;SDS011;36333;51.382;0.016;2022-11-20T16:08:55;33.95;;;5.03;;
31083;SDS011;36333;51.382;0.016;2022-11-20T16:11:23;35.05;;;5.15;;
31083;SDS011;36333;51.382;0.016;2022-11-20T16:13:50;35.28;;;4.97;;
31083;SDS011;36333;51.382;0.016;2022-11-20T16:16:37;34.50;;;5.40;;
31083;SDS011;36333;51.382;0.016;2022-11-20T16:19:06;30.15;;;4.47;;
31083;SDS011;36333;51.382;0.016;2022-11-20T16:21:36;32.10;;;4.93;;
31083;SDS011;36333;51.382;0.016;2022-11-20T16:24:06;26.92;;;4.30;;
31083;SDS011;36333;51.382;0.016;2022-11-20T16:26:35;29.92;;;4.43;;
31083;SDS011;36333;51.382;0.016;2022-11-20T16:29:03;35.38;;;6.25;;
31083;SDS011;36333;51.382;0.016;2022-11-20T16:31:32;33.22;;;5.22;;
31083;SDS011;36333;51.382;0.016;2022-11-20T16:34:01;39.53;;;7.22;;
31083;SDS011;36333;51.382;0.016;2022-11-20T16:36:40;31.20;;;7.05;;
31083;SDS011;36333;51.382;0.016;2022-11-20T16:39:10;22.65;;;5.10;;
31083;SDS011;36333;51.382;0.016;2022-11-20T16:41:39;39.35;;;5.55;;
31083;SDS011;36333;51.382;0.016;2022-11-20T16:44:08;34.38;;;5.30;;
31083;SDS011;36333;51.382;0.016;2022-11-20T16:46:37;28.65;;;5.43;;
31083;SDS011;36333;51.382;0.016;2022-11-20T16:49:10;30.25;;;5.35;;
31083;SDS011;36333;51.382;0.016;2022-11-20T16:51:39;26.55;;;5.00;;
31083;SDS011;36333;51.382;0.016;2022-11-20T16:54:09;34.22;;;4.57;;
31083;SDS011;36333;51.382;0.016;2022-11-20T16:56:38;30.15;;;4.35;;
31083;SDS011;36333;51.382;0.016;2022-11-20T16:59:06;32.35;;;6.82;;
31083;SDS011;36333;51.382;0.016;2022-11-20T17:01:33;29.75;;;4.28;;
31083;SDS011;36333;51.382;0.016;2022-11-20T17:04:05;37.97;;;7.00;;
31083;SDS011;36333;51.382;0.016;2022-11-20T17:06:33;25.27;;;5.15;;
31083;SDS011;36333;51.382;0.016;2022-11-20T17:09:03;26.00;;;4.63;;